sensor_id;sensor_type;location;lat;lon;timestamp;P1;durP1;ratioP1;P2;durP2;ratioP2
5704;SDS011;2877;48.238;11.160;2022-08-03T00:01:15;2.90;;;1.47;;
5704;SDS011;2877;48.238;11.160;2022-08-03T00:03:42;1.20;;;1.20;;
5704;SDS011;2877;48.238;11.160;2022-08-03T00:06:07;2.00;;;1.37;;
5704;SDS011;2877;48.238;11.160;2022-08-03T00:08:33;3.20;;;1.03;;
5704;SDS011;2877;48.238;11.160;2022-08-03T00:10:58;1.50;;;1.40;;
5704;SDS011;2877;48.238;11.160;2022-08-03T00:13:24;5.10;;;1.30;;
5704;SDS011;2877;48.238;11.160;2022-08-03T00:15:51;1.47;;;1.20;;
5704;SDS011;2877;48.238;11.160;2022-08-03T00:18:17;1.40;;;1.30;;
5704;SDS011;2877;48.238;11.160;2022-08-03T00:20:42;1.50;;;1.40;;
5704;SDS011;2877;48.238;11.160;2022-08-03T00:23:08;1.43;;;1.33;;
5704;SDS011;2877;48.238;11.160;2022-08-03T00:25:34;2.37;;;1.40;;
5704;SDS011;2877;48.238;11.160;2022-08-03T00:28:00;1.57;;;1.27;;
5704;SDS011;2877;48.238;11.160;2022-08-03T00:30:26;1.60;;;1.50;;
5704;SDS011;2877;48.238;11.160;2022-08-03T00:32:52;1.37;;;1.27;;
5704;SDS011;2877;48.238;11.160;2022-08-03T00:35:18;1.50;;;1.40;;
5704;SDS011;2877;48.238;11.160;2022-08-03T00:37:43;2.60;;;1.20;;
5704;SDS011;2877;48.238;11.160;2022-08-03T00:40:10;1.73;;;1.23;;
5704;SDS011;2877;48.238;11.160;2022-08-03T00:45:17;4.33;;;1.83;;
5704;SDS011;2877;48.238;11.160;2022-08-03T00:47:48;3.87;;;2.00;;
5704;SDS011;2877;48.238;11.160;2022-08-03T00:50:14;6.50;;;1.40;;
5704;SDS011;2877;48.238;11.160;2022-08-03T00:52:40;1.73;;;1.30;;
5704;SDS011;2877;48.238;11.160;2022-08-03T00:55:06;1.20;;;1.20;;
5704;SDS011;2877;48.238;11.160;2022-08-03T00:57:32;1.43;;;1.33;;
5704;SDS011;2877;48.238;11.160;2022-08-03T00:59:58;1.40;;;1.30;;
5704;SDS011;2877;48.238;11.160;2022-08-03T01:02:24;1.60;;;1.50;;
5704;SDS011;2877;48.238;11.160;2022-08-03T01:04:51;6.93;;;1.80;;
5704;SDS011;2877;48.238;11.160;2022-08-03T01:07:32;7.20;;;1.60;;
5704;SDS011;2877;48.238;11.160;2022-08-03T01:13:30;1.37;;;1.30;;
5704;SDS011;2877;48.238;11.160;2022-08-03T01:16:08;1.63;;;1.53;;
5704;SDS011;2877;48.238;11.160;2022-08-03T01:18:51;4.10;;;1.50;;
5704;SDS011;2877;48.238;11.160;2022-08-03T01:21:39;1.40;;;1.30;;
5704;SDS011;2877;48.238;11.160;2022-08-03T01:24:30;1.97;;;1.50;;
5704;SDS011;2877;48.238;11.160;2022-08-03T01:27:10;3.20;;;1.70;;
5704;SDS011;2877;48.238;11.160;2022-08-03T01:29:51;3.20;;;1.90;;
5704;SDS011;2877;48.238;11.160;2022-08-03T01:32:33;2.20;;;1.97;;
5704;SDS011;2877;48.238;11.160;2022-08-03T01:35:33;1.73;;;1.63;;
5704;SDS011;2877;48.238;11.160;2022-08-03T01:38:03;1.80;;;1.57;;
5704;SDS011;2877;48.238;11.160;2022-08-03T01:40:33;1.40;;;1.40;;
5704;SDS011;2877;48.238;11.160;2022-08-03T01:43:03;1.53;;;1.43;;
5704;SDS011;2877;48.238;11.160;2022-08-03T01:45:30;1.70;;;1.60;;
5704;SDS011;2877;48.238;11.160;2022-08-03T01:47:57;1.63;;;1.50;;
5704;SDS011;2877;48.238;11.160;2022-08-03T01:50:26;1.80;;;1.70;;
5704;SDS011;2877;48.238;11.160;2022-08-03T01:52:53;1.97;;;1.80;;
5704;SDS011;2877;48.238;11.160;2022-08-03T01:55:22;1.87;;;1.77;;
5704;SDS011;2877;48.238;11.160;2022-08-03T01:57:52;5.50;;;1.70;;
5704;SDS011;2877;48.238;11.160;2022-08-03T02:00:19;1.87;;;1.77;;
5704;SDS011;2877;48.238;11.160;2022-08-03T02:02:46;2.33;;;1.80;;
5704;SDS011;2877;48.238;11.160;2022-08-03T02:05:14;1.80;;;1.70;;
5704;SDS011;2877;48.238;11.160;2022-08-03T02:07:42;1.60;;;1.50;;
5704;SDS011;2877;48.238;11.160;2022-08-03T02:10:11;2.10;;;1.80;;
5704;SDS011;2877;48.238;11.160;2022-08-03T02:12:38;1.57;;;1.47;;
5704;SDS011;2877;48.238;11.160;2022-08-03T02:15:06;5.40;;;1.63;;
5704;SDS011;2877;48.238;11.160;2022-08-03T02:17:33;3.63;;;1.60;;
5704;SDS011;2877;48.238;11.160;2022-08-03T02:19:59;5.33;;;1.77;;
5704;SDS011;2877;48.238;11.160;2022-08-03T02:22:27;1.57;;;1.47;;
5704;SDS011;2877;48.238;11.160;2022-08-03T02:24:54;1.90;;;1.80;;
5704;SDS011;2877;48.238;11.160;2022-08-03T02:27:21;1.90;;;1.80;;
5704;SDS011;2877;48.238;11.160;2022-08-03T02:29:50;1.90;;;1.80;;
5704;SDS011;2877;48.238;11.160;2022-08-03T02:32:20;1.60;;;1.50;;
5704;SDS011;2877;48.238;11.160;2022-08-03T02:34:54;1.50;;;1.50;;
5704;SDS011;2877;48.238;11.160;2022-08-03T02:37:22;2.03;;;1.93;;
5704;SDS011;2877;48.238;11.160;2022-08-03T02:39:52;1.80;;;1.60;;
5704;SDS011;2877;48.238;11.160;2022-08-03T02:42:23;2.10;;;1.93;;
5704;SDS011;2877;48.238;11.160;2022-08-03T02:44:50;1.80;;;1.70;;
5704;SDS011;2877;48.238;11.160;2022-08-03T02:47:19;2.40;;;2.20;;
5704;SDS011;2877;48.238;11.160;2022-08-03T02:49:46;2.13;;;2.03;;
5704;SDS011;2877;48.238;11.160;2022-08-03T02:52:13;2.10;;;1.90;;
5704;SDS011;2877;48.238;11.160;2022-08-03T02:54:40;2.10;;;1.90;;
5704;SDS011;2877;48.238;11.160;2022-08-03T02:57:07;2.03;;;1.90;;
5704;SDS011;2877;48.238;11.160;2022-08-03T02:59:35;2.13;;;1.93;;
5704;SDS011;2877;48.238;11.160;2022-08-03T03:02:01;2.10;;;1.90;;
5704;SDS011;2877;48.238;11.160;2022-08-03T03:04:28;2.40;;;1.93;;
5704;SDS011;2877;48.238;11.160;2022-08-03T03:06:54;2.10;;;1.90;;
5704;SDS011;2877;48.238;11.160;2022-08-03T03:09:22;2.10;;;1.90;;
5704;SDS011;2877;48.238;11.160;2022-08-03T03:11:48;4.83;;;2.90;;
5704;SDS011;2877;48.238;11.160;2022-08-03T03:14:16;2.20;;;2.10;;
5704;SDS011;2877;48.238;11.160;2022-08-03T03:16:42;3.07;;;2.00;;
5704;SDS011;2877;48.238;11.160;2022-08-03T03:19:10;2.23;;;1.90;;
5704;SDS011;2877;48.238;11.160;2022-08-03T03:21:36;2.23;;;2.13;;
5704;SDS011;2877;48.238;11.160;2022-08-03T03:24:03;3.10;;;2.40;;
5704;SDS011;2877;48.238;11.160;2022-08-03T03:26:30;1.80;;;1.70;;
5704;SDS011;2877;48.238;11.160;2022-08-03T03:28:56;1.97;;;1.87;;
5704;SDS011;2877;48.238;11.160;2022-08-03T03:31:22;2.77;;;1.83;;
5704;SDS011;2877;48.238;11.160;2022-08-03T03:33:48;2.07;;;1.87;;
5704;SDS011;2877;48.238;11.160;2022-08-03T03:36:14;2.07;;;1.97;;
5704;SDS011;2877;48.238;11.160;2022-08-03T03:38:40;2.17;;;2.00;;
5704;SDS011;2877;48.238;11.160;2022-08-03T03:41:05;2.57;;;1.87;;
5704;SDS011;2877;48.238;11.160;2022-08-03T03:43:31;3.80;;;2.13;;
5704;SDS011;2877;48.238;11.160;2022-08-03T03:45:57;2.20;;;2.10;;
5704;SDS011;2877;48.238;11.160;2022-08-03T03:48:23;2.07;;;1.97;;
5704;SDS011;2877;48.238;11.160;2022-08-03T03:50:50;2.00;;;1.83;;
5704;SDS011;2877;48.238;11.160;2022-08-03T03:53:16;7.20;;;2.10;;
5704;SDS011;2877;48.238;11.160;2022-08-03T03:55:42;2.17;;;2.03;;
5704;SDS011;2877;48.238;11.160;2022-08-03T03:58:08;2.30;;;2.10;;
5704;SDS011;2877;48.238;11.160;2022-08-03T04:00:33;3.43;;;2.00;;
5704;SDS011;2877;48.238;11.160;2022-08-03T04:02:59;2.23;;;2.13;;
5704;SDS011;2877;48.238;11.160;2022-08-03T04:05:25;2.10;;;2.00;;
5704;SDS011;2877;48.238;11.160;2022-08-03T04:08:10;2.40;;;2.07;;
5704;SDS011;2877;48.238;11.160;2022-08-03T04:13:56;1.93;;;1.83;;
5704;SDS011;2877;48.238;11.160;2022-08-03T04:16:28;3.00;;;2.07;;
5704;SDS011;2877;48.238;11.160;2022-08-03T04:19:03;2.17;;;2.07;;
5704;SDS011;2877;48.238;11.160;2022-08-03T04:21:39;2.40;;;2.17;;
5704;SDS011;2877;48.238;11.160;2022-08-03T04:24:07;2.40;;;2.20;;
5704;SDS011;2877;48.238;11.160;2022-08-03T04:26:35;2.43;;;2.20;;
5704;SDS011;2877;48.238;11.160;2022-08-03T04:29:03;3.00;;;2.10;;
5704;SDS011;2877;48.238;11.160;2022-08-03T04:31:30;2.00;;;1.90;;
5704;SDS011;2877;48.238;11.160;2022-08-03T04:33:57;1.87;;;1.77;;
5704;SDS011;2877;48.238;11.160;2022-08-03T04:36:26;1.83;;;1.70;;
5704;SDS011;2877;48.238;11.160;2022-08-03T04:39:00;1.90;;;1.80;;
5704;SDS011;2877;48.238;11.160;2022-08-03T04:41:34;1.73;;;1.63;;
5704;SDS011;2877;48.238;11.160;2022-08-03T04:44:00;3.83;;;2.33;;
5704;SDS011;2877;48.238;11.160;2022-08-03T04:46:28;5.10;;;1.97;;
5704;SDS011;2877;48.238;11.160;2022-08-03T04:48:58;2.30;;;2.20;;
5704;SDS011;2877;48.238;11.160;2022-08-03T04:51:24;2.20;;;2.00;;
5704;SDS011;2877;48.238;11.160;2022-08-03T04:53:50;2.20;;;2.00;;
5704;SDS011;2877;48.238;11.160;2022-08-03T04:56:15;3.50;;;2.60;;
5704;SDS011;2877;48.238;11.160;2022-08-03T04:58:41;3.10;;;2.80;;
5704;SDS011;2877;48.238;11.160;2022-08-03T05:01:07;2.93;;;2.60;;
5704;SDS011;2877;48.238;11.160;2022-08-03T05:03:32;8.67;;;2.20;;
5704;SDS011;2877;48.238;11.160;2022-08-03T05:05:58;3.00;;;2.13;;
5704;SDS011;2877;48.238;11.160;2022-08-03T05:08:23;2.40;;;2.20;;
5704;SDS011;2877;48.238;11.160;2022-08-03T05:10:49;2.53;;;2.30;;
5704;SDS011;2877;48.238;11.160;2022-08-03T05:13:14;2.30;;;2.20;;
5704;SDS011;2877;48.238;11.160;2022-08-03T05:15:40;2.47;;;2.30;;
5704;SDS011;2877;48.238;11.160;2022-08-03T05:18:06;1.87;;;1.77;;
5704;SDS011;2877;48.238;11.160;2022-08-03T05:20:31;4.37;;;2.70;;
5704;SDS011;2877;48.238;11.160;2022-08-03T05:22:57;2.57;;;2.03;;
5704;SDS011;2877;48.238;11.160;2022-08-03T05:25:24;2.40;;;2.00;;
5704;SDS011;2877;48.238;11.160;2022-08-03T05:27:50;3.37;;;2.30;;
5704;SDS011;2877;48.238;11.160;2022-08-03T05:30:16;2.67;;;2.47;;
5704;SDS011;2877;48.238;11.160;2022-08-03T05:32:41;2.50;;;2.30;;
5704;SDS011;2877;48.238;11.160;2022-08-03T05:35:07;3.17;;;2.23;;
5704;SDS011;2877;48.238;11.160;2022-08-03T05:37:32;2.10;;;2.00;;
5704;SDS011;2877;48.238;11.160;2022-08-03T05:39:58;3.27;;;1.83;;
5704;SDS011;2877;48.238;11.160;2022-08-03T05:42:23;2.20;;;2.10;;
5704;SDS011;2877;48.238;11.160;2022-08-03T05:44:49;2.50;;;2.30;;
5704;SDS011;2877;48.238;11.160;2022-08-03T05:47:14;1.70;;;1.60;;
5704;SDS011;2877;48.238;11.160;2022-08-03T05:49:40;2.37;;;2.17;;
5704;SDS011;2877;48.238;11.160;2022-08-03T05:52:06;2.27;;;2.07;;
5704;SDS011;2877;48.238;11.160;2022-08-03T05:54:31;1.87;;;1.77;;
5704;SDS011;2877;48.238;11.160;2022-08-03T05:56:57;2.50;;;2.00;;
5704;SDS011;2877;48.238;11.160;2022-08-03T05:59:22;2.30;;;1.70;;
5704;SDS011;2877;48.238;11.160;2022-08-03T06:01:49;2.50;;;1.90;;
5704;SDS011;2877;48.238;11.160;2022-08-03T06:04:15;2.13;;;1.93;;
5704;SDS011;2877;48.238;11.160;2022-08-03T06:06:41;1.70;;;1.60;;
5704;SDS011;2877;48.238;11.160;2022-08-03T06:09:07;1.93;;;1.83;;
5704;SDS011;2877;48.238;11.160;2022-08-03T06:11:34;2.27;;;1.80;;
5704;SDS011;2877;48.238;11.160;2022-08-03T06:14:00;2.20;;;2.00;;
5704;SDS011;2877;48.238;11.160;2022-08-03T06:16:25;4.03;;;1.93;;
5704;SDS011;2877;48.238;11.160;2022-08-03T06:18:51;2.00;;;1.90;;
5704;SDS011;2877;48.238;11.160;2022-08-03T06:21:16;2.13;;;1.97;;
5704;SDS011;2877;48.238;11.160;2022-08-03T06:23:43;3.07;;;1.97;;
5704;SDS011;2877;48.238;11.160;2022-08-03T06:26:09;1.80;;;1.70;;
5704;SDS011;2877;48.238;11.160;2022-08-03T06:28:35;1.40;;;1.30;;
5704;SDS011;2877;48.238;11.160;2022-08-03T06:31:00;1.80;;;1.70;;
5704;SDS011;2877;48.238;11.160;2022-08-03T06:33:26;2.17;;;1.53;;
5704;SDS011;2877;48.238;11.160;2022-08-03T06:35:52;1.90;;;1.80;;
5704;SDS011;2877;48.238;11.160;2022-08-03T06:38:18;3.03;;;1.87;;
5704;SDS011;2877;48.238;11.160;2022-08-03T06:40:43;8.67;;;1.90;;
5704;SDS011;2877;48.238;11.160;2022-08-03T06:43:09;1.93;;;1.83;;
5704;SDS011;2877;48.238;11.160;2022-08-03T06:45:34;2.17;;;2.03;;
5704;SDS011;2877;48.238;11.160;2022-08-03T06:48:07;2.50;;;1.90;;
5704;SDS011;2877;48.238;11.160;2022-08-03T06:50:35;2.30;;;2.10;;
5704;SDS011;2877;48.238;11.160;2022-08-03T06:53:02;3.27;;;1.47;;
5704;SDS011;2877;48.238;11.160;2022-08-03T06:55:28;1.90;;;1.80;;
5704;SDS011;2877;48.238;11.160;2022-08-03T06:57:54;1.50;;;1.40;;
5704;SDS011;2877;48.238;11.160;2022-08-03T07:00:20;3.83;;;1.93;;
5704;SDS011;2877;48.238;11.160;2022-08-03T07:02:46;1.70;;;1.60;;
5704;SDS011;2877;48.238;11.160;2022-08-03T07:05:12;2.87;;;1.90;;
5704;SDS011;2877;48.238;11.160;2022-08-03T07:07:38;3.47;;;1.80;;
5704;SDS011;2877;48.238;11.160;2022-08-03T07:10:03;5.13;;;1.30;;
5704;SDS011;2877;48.238;11.160;2022-08-03T07:12:30;2.93;;;1.30;;
5704;SDS011;2877;48.238;11.160;2022-08-03T07:14:56;1.53;;;1.50;;
5704;SDS011;2877;48.238;11.160;2022-08-03T07:17:23;4.63;;;1.70;;
5704;SDS011;2877;48.238;11.160;2022-08-03T07:19:48;2.20;;;1.93;;
5704;SDS011;2877;48.238;11.160;2022-08-03T07:22:14;2.07;;;1.97;;
5704;SDS011;2877;48.238;11.160;2022-08-03T07:24:39;5.40;;;2.07;;
5704;SDS011;2877;48.238;11.160;2022-08-03T07:27:08;12.63;;;2.37;;
5704;SDS011;2877;48.238;11.160;2022-08-03T07:29:34;2.47;;;2.27;;
5704;SDS011;2877;48.238;11.160;2022-08-03T07:32:00;2.63;;;2.43;;
5704;SDS011;2877;48.238;11.160;2022-08-03T07:34:27;2.30;;;2.10;;
5704;SDS011;2877;48.238;11.160;2022-08-03T07:36:53;2.83;;;1.70;;
5704;SDS011;2877;48.238;11.160;2022-08-03T07:39:18;2.13;;;1.93;;
5704;SDS011;2877;48.238;11.160;2022-08-03T07:41:44;2.50;;;1.57;;
5704;SDS011;2877;48.238;11.160;2022-08-03T07:44:10;4.20;;;2.10;;
5704;SDS011;2877;48.238;11.160;2022-08-03T07:46:35;1.67;;;1.57;;
5704;SDS011;2877;48.238;11.160;2022-08-03T07:49:01;1.73;;;1.50;;
5704;SDS011;2877;48.238;11.160;2022-08-03T07:51:27;2.53;;;1.80;;
5704;SDS011;2877;48.238;11.160;2022-08-03T07:53:52;1.27;;;1.13;;
5704;SDS011;2877;48.238;11.160;2022-08-03T07:56:21;1.80;;;1.70;;
5704;SDS011;2877;48.238;11.160;2022-08-03T07:58:48;2.20;;;1.60;;
5704;SDS011;2877;48.238;11.160;2022-08-03T08:01:15;2.37;;;1.67;;
5704;SDS011;2877;48.238;11.160;2022-08-03T08:03:41;1.87;;;1.40;;
5704;SDS011;2877;48.238;11.160;2022-08-03T08:06:06;1.70;;;1.60;;
5704;SDS011;2877;48.238;11.160;2022-08-03T08:08:32;1.40;;;1.30;;
5704;SDS011;2877;48.238;11.160;2022-08-03T08:10:57;1.67;;;1.57;;
5704;SDS011;2877;48.238;11.160;2022-08-03T08:13:23;1.50;;;1.40;;
5704;SDS011;2877;48.238;11.160;2022-08-03T08:15:48;1.73;;;1.30;;
5704;SDS011;2877;48.238;11.160;2022-08-03T08:18:14;1.60;;;1.50;;
5704;SDS011;2877;48.238;11.160;2022-08-03T08:20:39;1.10;;;1.00;;
5704;SDS011;2877;48.238;11.160;2022-08-03T08:23:06;1.47;;;1.37;;
5704;SDS011;2877;48.238;11.160;2022-08-03T08:25:32;1.80;;;1.70;;
5704;SDS011;2877;48.238;11.160;2022-08-03T08:27:59;11.70;;;1.70;;
5704;SDS011;2877;48.238;11.160;2022-08-03T08:30:28;1.90;;;1.40;;
5704;SDS011;2877;48.238;11.160;2022-08-03T08:32:56;1.10;;;1.10;;
5704;SDS011;2877;48.238;11.160;2022-08-03T08:35:22;1.37;;;1.30;;
5704;SDS011;2877;48.238;11.160;2022-08-03T08:37:48;1.63;;;1.30;;
5704;SDS011;2877;48.238;11.160;2022-08-03T08:40:14;1.30;;;1.20;;
5704;SDS011;2877;48.238;11.160;2022-08-03T08:42:40;1.40;;;1.30;;
5704;SDS011;2877;48.238;11.160;2022-08-03T08:45:07;1.50;;;1.40;;
5704;SDS011;2877;48.238;11.160;2022-08-03T08:47:43;1.50;;;1.40;;
5704;SDS011;2877;48.238;11.160;2022-08-03T08:50:11;5.00;;;1.50;;
5704;SDS011;2877;48.238;11.160;2022-08-03T08:52:38;1.27;;;1.10;;
5704;SDS011;2877;48.238;11.160;2022-08-03T08:55:07;1.27;;;1.17;;
5704;SDS011;2877;48.238;11.160;2022-08-03T08:57:37;1.90;;;1.37;;
5704;SDS011;2877;48.238;11.160;2022-08-03T09:00:14;3.60;;;1.40;;
5704;SDS011;2877;48.238;11.160;2022-08-03T09:02:43;3.23;;;1.53;;
5704;SDS011;2877;48.238;11.160;2022-08-03T09:05:17;2.13;;;1.40;;
5704;SDS011;2877;48.238;11.160;2022-08-03T09:07:43;3.47;;;1.23;;
5704;SDS011;2877;48.238;11.160;2022-08-03T09:10:11;1.50;;;1.33;;
5704;SDS011;2877;48.238;11.160;2022-08-03T09:12:41;3.00;;;1.60;;
5704;SDS011;2877;48.238;11.160;2022-08-03T09:15:41;3.87;;;1.33;;
5704;SDS011;2877;48.238;11.160;2022-08-03T09:18:00;3.40;;;1.67;;
5704;SDS011;2877;48.238;11.160;2022-08-03T09:20:28;2.27;;;1.47;;
5704;SDS011;2877;48.238;11.160;2022-08-03T09:23:02;1.73;;;1.33;;
5704;SDS011;2877;48.238;11.160;2022-08-03T09:25:33;1.30;;;1.20;;
5704;SDS011;2877;48.238;11.160;2022-08-03T09:28:04;3.83;;;1.57;;
5704;SDS011;2877;48.238;11.160;2022-08-03T09:30:29;2.90;;;1.90;;
5704;SDS011;2877;48.238;11.160;2022-08-03T09:32:59;3.40;;;1.67;;
5704;SDS011;2877;48.238;11.160;2022-08-03T09:35:26;1.67;;;1.57;;
5704;SDS011;2877;48.238;11.160;2022-08-03T09:40:38;1.57;;;1.13;;
5704;SDS011;2877;48.238;11.160;2022-08-03T09:43:04;2.50;;;1.40;;
5704;SDS011;2877;48.238;11.160;2022-08-03T09:45:32;1.30;;;1.20;;
5704;SDS011;2877;48.238;11.160;2022-08-03T09:48:18;1.33;;;1.10;;
5704;SDS011;2877;48.238;11.160;2022-08-03T09:50:52;2.20;;;1.20;;
5704;SDS011;2877;48.238;11.160;2022-08-03T09:53:19;1.83;;;1.20;;
5704;SDS011;2877;48.238;11.160;2022-08-03T09:55:55;5.33;;;1.30;;
5704;SDS011;2877;48.238;11.160;2022-08-03T09:58:23;1.00;;;1.00;;
5704;SDS011;2877;48.238;11.160;2022-08-03T10:03:25;2.30;;;1.10;;
5704;SDS011;2877;48.238;11.160;2022-08-03T10:05:52;1.40;;;1.27;;
5704;SDS011;2877;48.238;11.160;2022-08-03T10:08:18;2.33;;;1.20;;
5704;SDS011;2877;48.238;11.160;2022-08-03T10:10:45;1.20;;;1.00;;
5704;SDS011;2877;48.238;11.160;2022-08-03T10:13:12;3.43;;;1.07;;
5704;SDS011;2877;48.238;11.160;2022-08-03T10:15:39;2.10;;;1.00;;
5704;SDS011;2877;48.238;11.160;2022-08-03T10:18:05;1.93;;;1.17;;
5704;SDS011;2877;48.238;11.160;2022-08-03T10:20:32;3.13;;;0.97;;
5704;SDS011;2877;48.238;11.160;2022-08-03T10:23:07;1.13;;;1.07;;
5704;SDS011;2877;48.238;11.160;2022-08-03T10:25:34;6.13;;;1.07;;
5704;SDS011;2877;48.238;11.160;2022-08-03T10:28:05;0.90;;;0.90;;
5704;SDS011;2877;48.238;11.160;2022-08-03T10:30:32;3.37;;;1.27;;
5704;SDS011;2877;48.238;11.160;2022-08-03T10:35:32;1.93;;;1.00;;
5704;SDS011;2877;48.238;11.160;2022-08-03T10:38:02;1.33;;;1.00;;
5704;SDS011;2877;48.238;11.160;2022-08-03T10:40:32;1.10;;;1.07;;
5704;SDS011;2877;48.238;11.160;2022-08-03T10:43:06;2.10;;;1.00;;
5704;SDS011;2877;48.238;11.160;2022-08-03T10:45:38;0.97;;;0.97;;
5704;SDS011;2877;48.238;11.160;2022-08-03T10:48:05;1.40;;;1.30;;
5704;SDS011;2877;48.238;11.160;2022-08-03T10:50:32;1.10;;;1.10;;
5704;SDS011;2877;48.238;11.160;2022-08-03T10:52:59;0.83;;;0.80;;
5704;SDS011;2877;48.238;11.160;2022-08-03T10:55:44;1.20;;;1.03;;
5704;SDS011;2877;48.238;11.160;2022-08-03T11:01:00;1.20;;;1.10;;
5704;SDS011;2877;48.238;11.160;2022-08-03T11:03:27;1.03;;;0.90;;
5704;SDS011;2877;48.238;11.160;2022-08-03T11:05:52;1.27;;;1.17;;
5704;SDS011;2877;48.238;11.160;2022-08-03T11:08:37;2.93;;;1.00;;
5704;SDS011;2877;48.238;11.160;2022-08-03T11:13:43;1.50;;;1.07;;
5704;SDS011;2877;48.238;11.160;2022-08-03T11:16:31;1.30;;;1.20;;
5704;SDS011;2877;48.238;11.160;2022-08-03T11:19:00;1.83;;;1.47;;
5704;SDS011;2877;48.238;11.160;2022-08-03T11:48:37;2.13;;;1.10;;
5704;SDS011;2877;48.238;11.160;2022-08-03T11:51:17;1.37;;;1.03;;
5704;SDS011;2877;48.238;11.160;2022-08-03T11:53:43;2.10;;;0.90;;
5704;SDS011;2877;48.238;11.160;2022-08-03T11:56:12;3.17;;;0.90;;
5704;SDS011;2877;48.238;11.160;2022-08-03T11:58:44;1.30;;;1.20;;
5704;SDS011;2877;48.238;11.160;2022-08-03T12:01:16;2.37;;;1.00;;
5704;SDS011;2877;48.238;11.160;2022-08-03T12:03:42;1.80;;;1.37;;
5704;SDS011;2877;48.238;11.160;2022-08-03T12:06:08;1.97;;;1.20;;
5704;SDS011;2877;48.238;11.160;2022-08-03T12:08:35;0.97;;;0.97;;
5704;SDS011;2877;48.238;11.160;2022-08-03T12:11:02;1.10;;;1.10;;
5704;SDS011;2877;48.238;11.160;2022-08-03T12:13:37;2.20;;;1.00;;
5704;SDS011;2877;48.238;11.160;2022-08-03T12:16:16;1.63;;;1.00;;
5704;SDS011;2877;48.238;11.160;2022-08-03T12:19:00;1.63;;;1.10;;
5704;SDS011;2877;48.238;11.160;2022-08-03T12:21:27;1.90;;;0.90;;
5704;SDS011;2877;48.238;11.160;2022-08-03T12:23:56;1.07;;;0.83;;
5704;SDS011;2877;48.238;11.160;2022-08-03T12:26:27;1.27;;;1.10;;
5704;SDS011;2877;48.238;11.160;2022-08-03T12:28:54;0.90;;;0.90;;
5704;SDS011;2877;48.238;11.160;2022-08-03T12:31:20;0.80;;;0.80;;
5704;SDS011;2877;48.238;11.160;2022-08-03T12:33:59;1.53;;;1.10;;
5704;SDS011;2877;48.238;11.160;2022-08-03T12:36:29;1.13;;;1.03;;
5704;SDS011;2877;48.238;11.160;2022-08-03T12:38:58;5.70;;;0.90;;
5704;SDS011;2877;48.238;11.160;2022-08-03T12:41:35;1.20;;;1.10;;
5704;SDS011;2877;48.238;11.160;2022-08-03T12:44:03;1.03;;;1.03;;
5704;SDS011;2877;48.238;11.160;2022-08-03T12:46:31;1.27;;;0.90;;
5704;SDS011;2877;48.238;11.160;2022-08-03T12:49:13;1.83;;;1.00;;
5704;SDS011;2877;48.238;11.160;2022-08-03T12:54:08;0.97;;;0.80;;
5704;SDS011;2877;48.238;11.160;2022-08-03T12:56:56;1.53;;;1.10;;
5704;SDS011;2877;48.238;11.160;2022-08-03T12:59:25;0.90;;;0.80;;
5704;SDS011;2877;48.238;11.160;2022-08-03T13:01:52;0.90;;;0.90;;
5704;SDS011;2877;48.238;11.160;2022-08-03T13:04:51;0.77;;;0.77;;
5704;SDS011;2877;48.238;11.160;2022-08-03T13:07:10;0.90;;;0.90;;
5704;SDS011;2877;48.238;11.160;2022-08-03T13:09:44;0.80;;;0.80;;
5704;SDS011;2877;48.238;11.160;2022-08-03T13:12:14;0.80;;;0.80;;
5704;SDS011;2877;48.238;11.160;2022-08-03T13:14:42;1.17;;;0.90;;
5704;SDS011;2877;48.238;11.160;2022-08-03T13:17:09;0.90;;;0.90;;
5704;SDS011;2877;48.238;11.160;2022-08-03T13:19:35;2.28;;;0.80;;
5704;SDS011;2877;48.238;11.160;2022-08-03T13:22:18;1.00;;;0.88;;
5704;SDS011;2877;48.238;11.160;2022-08-03T13:24:49;0.82;;;0.77;;
5704;SDS011;2877;48.238;11.160;2022-08-03T13:27:16;0.60;;;0.60;;
5704;SDS011;2877;48.238;11.160;2022-08-03T13:29:42;1.15;;;0.70;;
5704;SDS011;2877;48.238;11.160;2022-08-03T13:32:08;0.55;;;0.55;;
5704;SDS011;2877;48.238;11.160;2022-08-03T13:34:34;0.50;;;0.50;;
5704;SDS011;2877;48.238;11.160;2022-08-03T13:37:00;0.70;;;0.60;;
5704;SDS011;2877;48.238;11.160;2022-08-03T13:39:27;0.60;;;0.60;;
5704;SDS011;2877;48.238;11.160;2022-08-03T13:41:52;0.70;;;0.70;;
5704;SDS011;2877;48.238;11.160;2022-08-03T13:44:18;4.45;;;0.70;;
5704;SDS011;2877;48.238;11.160;2022-08-03T13:46:44;3.80;;;0.80;;
5704;SDS011;2877;48.238;11.160;2022-08-03T13:49:10;0.57;;;0.57;;
5704;SDS011;2877;48.238;11.160;2022-08-03T13:51:36;1.60;;;0.70;;
5704;SDS011;2877;48.238;11.160;2022-08-03T13:54:01;0.77;;;0.77;;
5704;SDS011;2877;48.238;11.160;2022-08-03T13:56:28;0.60;;;0.60;;
5704;SDS011;2877;48.238;11.160;2022-08-03T13:58:54;0.82;;;0.60;;
5704;SDS011;2877;48.238;11.160;2022-08-03T14:01:21;2.55;;;0.80;;
5704;SDS011;2877;48.238;11.160;2022-08-03T14:03:47;0.52;;;0.52;;
5704;SDS011;2877;48.238;11.160;2022-08-03T14:06:16;0.98;;;0.88;;
5704;SDS011;2877;48.238;11.160;2022-08-03T14:08:42;0.93;;;0.70;;
5704;SDS011;2877;48.238;11.160;2022-08-03T14:11:08;1.80;;;0.80;;
5704;SDS011;2877;48.238;11.160;2022-08-03T14:13:35;1.73;;;0.88;;
5704;SDS011;2877;48.238;11.160;2022-08-03T14:16:01;0.80;;;0.65;;
5704;SDS011;2877;48.238;11.160;2022-08-03T14:18:26;1.10;;;0.85;;
5704;SDS011;2877;48.238;11.160;2022-08-03T14:20:52;0.68;;;0.68;;
5704;SDS011;2877;48.238;11.160;2022-08-03T14:23:18;0.75;;;0.75;;
5704;SDS011;2877;48.238;11.160;2022-08-03T14:25:43;2.47;;;0.80;;
5704;SDS011;2877;48.238;11.160;2022-08-03T14:28:09;0.82;;;0.80;;
5704;SDS011;2877;48.238;11.160;2022-08-03T14:30:36;0.70;;;0.70;;
5704;SDS011;2877;48.238;11.160;2022-08-03T14:33:01;0.70;;;0.70;;
5704;SDS011;2877;48.238;11.160;2022-08-03T14:35:27;0.60;;;0.60;;
5704;SDS011;2877;48.238;11.160;2022-08-03T14:37:53;1.13;;;0.80;;
5704;SDS011;2877;48.238;11.160;2022-08-03T14:40:18;0.57;;;0.57;;
5704;SDS011;2877;48.238;11.160;2022-08-03T14:42:44;0.90;;;0.80;;
5704;SDS011;2877;48.238;11.160;2022-08-03T14:45:10;0.70;;;0.70;;
5704;SDS011;2877;48.238;11.160;2022-08-03T14:47:36;1.10;;;0.75;;
5704;SDS011;2877;48.238;11.160;2022-08-03T14:50:02;0.75;;;0.63;;
5704;SDS011;2877;48.238;11.160;2022-08-03T14:52:29;1.02;;;0.60;;
5704;SDS011;2877;48.238;11.160;2022-08-03T14:54:55;1.52;;;0.70;;
5704;SDS011;2877;48.238;11.160;2022-08-03T14:57:21;0.70;;;0.70;;
5704;SDS011;2877;48.238;11.160;2022-08-03T14:59:53;0.95;;;0.70;;
5704;SDS011;2877;48.238;11.160;2022-08-03T15:02:19;0.55;;;0.55;;
5704;SDS011;2877;48.238;11.160;2022-08-03T15:04:44;0.77;;;0.60;;
5704;SDS011;2877;48.238;11.160;2022-08-03T15:07:10;2.03;;;0.93;;
5704;SDS011;2877;48.238;11.160;2022-08-03T15:09:35;0.80;;;0.80;;
5704;SDS011;2877;48.238;11.160;2022-08-03T15:12:03;0.87;;;0.70;;
5704;SDS011;2877;48.238;11.160;2022-08-03T15:14:30;1.03;;;1.03;;
5704;SDS011;2877;48.238;11.160;2022-08-03T15:16:56;2.93;;;1.07;;
5704;SDS011;2877;48.238;11.160;2022-08-03T15:19:21;0.90;;;0.80;;
5704;SDS011;2877;48.238;11.160;2022-08-03T15:21:47;0.90;;;0.90;;
5704;SDS011;2877;48.238;11.160;2022-08-03T15:24:12;1.63;;;0.90;;
5704;SDS011;2877;48.238;11.160;2022-08-03T15:26:38;1.03;;;0.93;;
5704;SDS011;2877;48.238;11.160;2022-08-03T15:29:03;2.03;;;0.90;;
5704;SDS011;2877;48.238;11.160;2022-08-03T15:31:29;1.80;;;1.10;;
5704;SDS011;2877;48.238;11.160;2022-08-03T15:33:54;1.07;;;1.07;;
5704;SDS011;2877;48.238;11.160;2022-08-03T15:36:20;1.00;;;1.00;;
5704;SDS011;2877;48.238;11.160;2022-08-03T15:38:45;2.50;;;1.13;;
5704;SDS011;2877;48.238;11.160;2022-08-03T15:41:12;1.13;;;1.03;;
5704;SDS011;2877;48.238;11.160;2022-08-03T15:43:38;3.63;;;1.40;;
5704;SDS011;2877;48.238;11.160;2022-08-03T15:46:04;1.43;;;1.20;;
5704;SDS011;2877;48.238;11.160;2022-08-03T15:48:30;2.63;;;1.10;;
5704;SDS011;2877;48.238;11.160;2022-08-03T15:50:56;0.97;;;0.93;;
5704;SDS011;2877;48.238;11.160;2022-08-03T15:53:21;2.03;;;1.10;;
5704;SDS011;2877;48.238;11.160;2022-08-03T15:55:47;2.10;;;1.10;;
5704;SDS011;2877;48.238;11.160;2022-08-03T15:58:12;1.03;;;0.93;;